Seacod — DDPW — position and weather

sailwx.info

Track history (hours):
 
Tides and Currents Weather Stations Pressure Air Temp Water Temp Dewpoint Dewpoint Depression Visibility Wind Speed Wind Dir Waves Ship Positions

Seacod

Last reported at 2017-Jan-21 03:33 UTC. Time now 2017-Jan-21 08:46 UTC.
Position N 57°49' E 009°59'.

Length 188 m; draft 10.9 m.

Type: Ship. MMSI: 218019000.

Date/timePositionNaut miles runAvg speedWind from/ knotsBaromVisibWave heightAir tempDewpointWater temp
2017-Jan-21 03:33N 57°49' E 009°59'1313.1
2017-Jan-21 02:33N 57°49' E 010°24'1212.4
2017-Jan-21 01:33N 57°49' E 010°47'1312.5
2017-Jan-21 00:33N 57°41' E 011°04'1312.8
2017-Jan-20 23:33N 57°31' E 011°21'1312.8
2017-Jan-20 22:33N 57°20' E 011°31'1413.6
2017-Jan-20 21:33N 57°07' E 011°40'1513.7
2017-Jan-20 20:30N 56°53' E 011°49'10611.9
2017-Jan-20 11:33N 55°10' E 011°02'1212.2
2017-Jan-20 10:34N 54°58' E 010°58'1211.8
2017-Jan-20 09:33N 54°48' E 010°50'10 9.7
2017-Jan-20 08:33N 54°38' E 010°54'1212.1
2017-Jan-20 07:34N 54°36' E 011°14'1312.5
2017-Jan-20 06:33N 54°30' E 011°33'1412.6
2017-Jan-20 05:27N 54°26' E 011°57'1010.9
2017-Jan-20 04:33N 54°29' E 012°12'1211.8
2017-Jan-20 03:33N 54°39' E 012°23'5212.4
2017-Jan-19 23:23N 55°00' E 013°46'1112.5
2017-Jan-19 22:33N 55°04' E 014°03'1212.3
2017-Jan-19 21:33N 55°13' E 014°17'1312.9
2017-Jan-19 20:33N 55°24' E 014°30'1312.7
2017-Jan-19 19:33N 55°31' E 014°49'36612.2
2017-Jan-18 13:33N 59°37' E 023°14'1313.0
2017-Jan-18 12:33N 59°40' E 023°39'1312.9
2017-Jan-18 11:33N 59°44' E 024°04'6412.7
2017-Jan-18 06:33N 59°58' E 026°07'1313.2
2017-Jan-18 05:33N 60°01' E 026°33'1313.2
2017-Jan-18 04:32N 59°59' E 026°59'1512.7
2017-Jan-18 03:23N 60°06' E 027°25'1113.0
2017-Jan-18 02:33N 60°12' E 027°44'1513.5
2017-Jan-18 01:27N 60°09' E 028°13'1111.9
2017-Jan-18 00:33N 60°08' E 028°34'9 8.6
2017-Jan-17 23:33N 60°14' E 028°47'3 0.1
2017-Jan-16 15:33N 60°12' E 028°44'1212.1
2017-Jan-16 14:34N 60°05' E 028°24'1514.9
2017-Jan-16 13:34N 60°10' E 027°55'1514.4
2017-Jan-16 12:33N 60°05' E 027°27'1310.7
2017-Jan-16 11:21N 60°01' E 027°03'0 0.0
2017-Jan-16 10:33N 60°01' E 027°03'0 0.0
2017-Jan-16 09:18N 60°01' E 027°03'0 0.0
2017-Jan-16 08:33N 60°01' E 027°03'0 0.0
2017-Jan-16 07:18N 60°01' E 027°03'0 0.0
2017-Jan-16 06:30N 60°01' E 027°03'0 0.0
2017-Jan-16 05:27N 60°01' E 027°03'0 0.0
2017-Jan-16 04:31N 60°01' E 027°03'0 0.0
2017-Jan-16 03:31N 60°01' E 027°03'0 0.0
2017-Jan-16 02:24N 60°01' E 027°03'0 0.0
2017-Jan-16 01:33N 60°01' E 027°03'0 0.0
2017-Jan-16 00:27N 60°01' E 027°03'0 0.0
2017-Jan-15 23:27N 60°01' E 027°03'0 0.0
2017-Jan-15 22:27N 60°01' E 027°03'0 0.0
2017-Jan-15 21:24N 60°01' E 027°03'0 0.0
2017-Jan-15 20:30N 60°01' E 027°03'0 0.0
2017-Jan-15 19:30N 60°01' E 027°03'0 0.0
2017-Jan-15 18:24N 60°01' E 027°03'0 0.0
2017-Jan-15 17:32N 60°01' E 027°03'0 0.0
2017-Jan-15 16:06N 60°01' E 027°03'0 0.0
2017-Jan-15 15:22N 60°01' E 027°03'1 0.6
2017-Jan-15 14:21N 60°00' E 027°04'8 9.8
2017-Jan-15 13:32N 59°59' E 026°48'99 7.6
2017-Jan-15 00:31N 59°28' E 023°42'36214.5
2017-Jan-13 23:33N 55°34' E 015°09'1515.0
2017-Jan-13 22:33N 55°27' E 014°46'1514.6
2017-Jan-13 21:33N 55°16' E 014°27'1413.9
2017-Jan-13 20:33N 55°10' E 014°05'1914.7
2017-Jan-13 19:15N 55°12' E 013°32'1014.5
2017-Jan-13 18:33N 55°13' E 013°14'1614.7
2017-Jan-13 17:26N 55°16' E 012°46'910.8
2017-Jan-13 16:33N 55°25' E 012°39'1110.8
2017-Jan-13 15:33N 55°36' E 012°42'1110.8
2017-Jan-13 14:33N 55°47' E 012°42'1313.4
2017-Jan-13 13:33N 55°60' E 012°37'1111.3
2017-Jan-13 12:33N 56°09' E 012°26'6013.7
2017-Jan-13 08:10N 57°04' E 011°40'914.3
2017-Jan-13 07:33N 57°12' E 011°34'1414.5
2017-Jan-13 06:33N 57°26' E 011°25'1414.4
2017-Jan-13 05:33N 57°36' E 011°07'1414.1
2017-Jan-13 04:33N 57°44' E 010°45'19412.1
2017-Jan-12 12:33N 55°26' E 006°38'9 8.7
2017-Jan-12 11:33N 55°17' E 006°38'7 7.2
2017-Jan-12 10:33N 55°10' E 006°42'6 6.4
2017-Jan-12 09:33N 55°04' E 006°46'6 6.3
2017-Jan-12 08:33N 54°58' E 006°51'6 6.0
2017-Jan-12 07:33N 54°53' E 006°56'6 6.2
2017-Jan-12 06:33N 54°48' E 007°01'7 6.7
2017-Jan-12 05:33N 54°42' E 007°07'54 7.5
2017-Jan-11 22:26N 54°01' E 008°06'7 7.6
2017-Jan-11 21:31N 54°00' E 008°18'1010.5
2017-Jan-11 20:33N 53°58' E 008°35'1110.7
2017-Jan-11 19:34N 53°51' E 008°48'1413.6
2017-Jan-11 18:33N 53°53' E 009°10'1212.0
2017-Jan-11 17:34N 53°45' E 009°25'1414.4
2017-Jan-11 16:33N 53°34' E 009°42'10 9.9
2017-Jan-11 15:34N 53°31' E 009°57'0 0.4
2017-Jan-11 14:30N 53°30' E 009°57'0 0.0
2017-Jan-11 13:33N 53°30' E 009°57'0 0.0
2017-Jan-11 12:30N 53°30' E 009°57'0 0.0
2017-Jan-11 11:24N 53°30' E 009°57'0 0.0
2017-Jan-11 10:30N 53°30' E 009°57'0 0.0
2017-Jan-11 09:18N 53°30' E 009°57'0 0.0
2017-Jan-11 08:33N 53°30' E 009°57'0 0.0
2017-Jan-11 07:33N 53°30' E 009°57'0 0.0
2017-Jan-11 06:30N 53°30' E 009°57'0 0.0
2017-Jan-11 05:33N 53°30' E 009°57'0 0.0
2017-Jan-11 04:30N 53°30' E 009°57'  
Track history (hours):
 
Tides and Currents Weather Stations Pressure Air Temp Water Temp Dewpoint Dewpoint Depression Visibility Wind Speed Wind Dir Waves Ship Positions

Seacod

Last reported at 2017-Jan-21 03:33 UTC. Time now 2017-Jan-21 08:46 UTC.
Position N 57°49' E 009°59'.

Length 188 m; draft 10.9 m.

Type: Ship. MMSI: 218019000.

Date/timePositionNaut miles runAvg speedWind from/ knotsBaromVisibWave heightAir tempDewpointWater temp
2017-Jan-21 03:33N 57°49' E 009°59'1313.1
2017-Jan-21 02:33N 57°49' E 010°24'1212.4
2017-Jan-21 01:33N 57°49' E 010°47'1312.5
2017-Jan-21 00:33N 57°41' E 011°04'1312.8
2017-Jan-20 23:33N 57°31' E 011°21'1312.8
2017-Jan-20 22:33N 57°20' E 011°31'1413.6
2017-Jan-20 21:33N 57°07' E 011°40'1513.7
2017-Jan-20 20:30N 56°53' E 011°49'10611.9
2017-Jan-20 11:33N 55°10' E 011°02'1212.2
2017-Jan-20 10:34N 54°58' E 010°58'1211.8
2017-Jan-20 09:33N 54°48' E 010°50'10 9.7
2017-Jan-20 08:33N 54°38' E 010°54'1212.1
2017-Jan-20 07:34N 54°36' E 011°14'1312.5
2017-Jan-20 06:33N 54°30' E 011°33'1412.6
2017-Jan-20 05:27N 54°26' E 011°57'1010.9
2017-Jan-20 04:33N 54°29' E 012°12'1211.8
2017-Jan-20 03:33N 54°39' E 012°23'5212.4
2017-Jan-19 23:23N 55°00' E 013°46'1112.5
2017-Jan-19 22:33N 55°04' E 014°03'1212.3
2017-Jan-19 21:33N 55°13' E 014°17'1312.9
2017-Jan-19 20:33N 55°24' E 014°30'1312.7
2017-Jan-19 19:33N 55°31' E 014°49'36612.2
2017-Jan-18 13:33N 59°37' E 023°14'1313.0
2017-Jan-18 12:33N 59°40' E 023°39'1312.9
2017-Jan-18 11:33N 59°44' E 024°04'6412.7
2017-Jan-18 06:33N 59°58' E 026°07'1313.2
2017-Jan-18 05:33N 60°01' E 026°33'1313.2
2017-Jan-18 04:32N 59°59' E 026°59'1512.7
2017-Jan-18 03:23N 60°06' E 027°25'1113.0
2017-Jan-18 02:33N 60°12' E 027°44'1513.5
2017-Jan-18 01:27N 60°09' E 028°13'1111.9
2017-Jan-18 00:33N 60°08' E 028°34'9 8.6
2017-Jan-17 23:33N 60°14' E 028°47'3 0.1
2017-Jan-16 15:33N 60°12' E 028°44'1212.1
2017-Jan-16 14:34N 60°05' E 028°24'1514.9
2017-Jan-16 13:34N 60°10' E 027°55'1514.4
2017-Jan-16 12:33N 60°05' E 027°27'1310.7
2017-Jan-16 11:21N 60°01' E 027°03'0 0.0
2017-Jan-16 10:33N 60°01' E 027°03'0 0.0
2017-Jan-16 09:18N 60°01' E 027°03'0 0.0
2017-Jan-16 08:33N 60°01' E 027°03'0 0.0
2017-Jan-16 07:18N 60°01' E 027°03'0 0.0
2017-Jan-16 06:30N 60°01' E 027°03'0 0.0
2017-Jan-16 05:27N 60°01' E 027°03'0 0.0
2017-Jan-16 04:31N 60°01' E 027°03'0 0.0
2017-Jan-16 03:31N 60°01' E 027°03'0 0.0
2017-Jan-16 02:24N 60°01' E 027°03'0 0.0
2017-Jan-16 01:33N 60°01' E 027°03'0 0.0
2017-Jan-16 00:27N 60°01' E 027°03'0 0.0
2017-Jan-15 23:27N 60°01' E 027°03'0 0.0
2017-Jan-15 22:27N 60°01' E 027°03'0 0.0
2017-Jan-15 21:24N 60°01' E 027°03'0 0.0
2017-Jan-15 20:30N 60°01' E 027°03'0 0.0
2017-Jan-15 19:30N 60°01' E 027°03'0 0.0
2017-Jan-15 18:24N 60°01' E 027°03'0 0.0
2017-Jan-15 17:32N 60°01' E 027°03'0 0.0
2017-Jan-15 16:06N 60°01' E 027°03'0 0.0
2017-Jan-15 15:22N 60°01' E 027°03'1 0.6
2017-Jan-15 14:21N 60°00' E 027°04'8 9.8
2017-Jan-15 13:32N 59°59' E 026°48'99 7.6
2017-Jan-15 00:31N 59°28' E 023°42'36214.5
2017-Jan-13 23:33N 55°34' E 015°09'1515.0
2017-Jan-13 22:33N 55°27' E 014°46'1514.6
2017-Jan-13 21:33N 55°16' E 014°27'1413.9
2017-Jan-13 20:33N 55°10' E 014°05'1914.7
2017-Jan-13 19:15N 55°12' E 013°32'1014.5
2017-Jan-13 18:33N 55°13' E 013°14'1614.7
2017-Jan-13 17:26N 55°16' E 012°46'910.8
2017-Jan-13 16:33N 55°25' E 012°39'1110.8
2017-Jan-13 15:33N 55°36' E 012°42'1110.8
2017-Jan-13 14:33N 55°47' E 012°42'1313.4
2017-Jan-13 13:33N 55°60' E 012°37'1111.3
2017-Jan-13 12:33N 56°09' E 012°26'6013.7
2017-Jan-13 08:10N 57°04' E 011°40'914.3
2017-Jan-13 07:33N 57°12' E 011°34'1414.5
2017-Jan-13 06:33N 57°26' E 011°25'1414.4
2017-Jan-13 05:33N 57°36' E 011°07'1414.1
2017-Jan-13 04:33N 57°44' E 010°45'19412.1
2017-Jan-12 12:33N 55°26' E 006°38'9 8.7
2017-Jan-12 11:33N 55°17' E 006°38'7 7.2
2017-Jan-12 10:33N 55°10' E 006°42'6 6.4
2017-Jan-12 09:33N 55°04' E 006°46'6 6.3
2017-Jan-12 08:33N 54°58' E 006°51'6 6.0
2017-Jan-12 07:33N 54°53' E 006°56'6 6.2
2017-Jan-12 06:33N 54°48' E 007°01'7 6.7
2017-Jan-12 05:33N 54°42' E 007°07'54 7.5
2017-Jan-11 22:26N 54°01' E 008°06'7 7.6
2017-Jan-11 21:31N 54°00' E 008°18'1010.5
2017-Jan-11 20:33N 53°58' E 008°35'1110.7
2017-Jan-11 19:34N 53°51' E 008°48'1413.6
2017-Jan-11 18:33N 53°53' E 009°10'1212.0
2017-Jan-11 17:34N 53°45' E 009°25'1414.4
2017-Jan-11 16:33N 53°34' E 009°42'10 9.9
2017-Jan-11 15:34N 53°31' E 009°57'0 0.4
2017-Jan-11 14:30N 53°30' E 009°57'0 0.0
2017-Jan-11 13:33N 53°30' E 009°57'0 0.0
2017-Jan-11 12:30N 53°30' E 009°57'0 0.0
2017-Jan-11 11:24N 53°30' E 009°57'0 0.0
2017-Jan-11 10:30N 53°30' E 009°57'0 0.0
2017-Jan-11 09:18N 53°30' E 009°57'0 0.0
2017-Jan-11 08:33N 53°30' E 009°57'0 0.0
2017-Jan-11 07:33N 53°30' E 009°57'0 0.0
2017-Jan-11 06:30N 53°30' E 009°57'0 0.0
2017-Jan-11 05:33N 53°30' E 009°57'0 0.0
2017-Jan-11 04:30N 53°30' E 009°57'  

Dump ship's entire track history